map of INH home
INH - Airport
Location
City:  Inhambane, Inhambane, Mozambique
Name:Inhambane Airport
ICAO:FQIN
IATA:INH

Details
Type:Airport (Aerodrome, Airfield)
Use:Public/Civil
Latitude:2352'35"S (-23.876430)
Longitude:3524'31"E (35.408544)
Datum:WGS 1984
Elevation:30 ft (9 m)
Variation:18.25W (WMM2015 magnetic declination)
-0.10 annual change
Runways:2
Longest:4921 × 98 ft (1500 × 30 m), paved

Time
Time Zone:UTC+2
Local Time:

Weather
METAR:FQIN 210400Z 25010KT 9999 SCT020 20/14 Q1016

Related Locations
Nearby:
Farthest:ITO: 11715 mi / 18854 km
Hilo [Hilo Intl], Hawaii, HI, US

Find:

   beyond  
but within

Other Information
Maps:
NOTAMs:
Links:
Sources:

  
  • flag of Mozambique
  

Sectional Chart

Flight Planning
at skyvector.com

Satellite Image

Google Maps Satellite view

 

Copyright © 2004-2018 Karl L. Swartz. All rights reserved.
The Great Circle Mapper name and logo are trademarks of the Great Circle Mapper.
All other trademarks mentioned herein belong to their respective owners.
Please see credits for attibutions and further copyright information.

  Follow gcmap on Facebook Follow gcmap on Twitter Follow gcmap on Google+ GCmap on LinkedIn

hCard Microformat

Geo Microformat